sensor_id;sensor_type;location;lat;lon;timestamp;P1;P2;P0
62778;PMS7003;48821;48.796;2.396;2024-03-02T06:54:33;1.67;1.67;0.67
62778;PMS7003;48821;48.796;2.396;2024-03-02T06:55:47;2.50;2.33;1.00
62778;PMS7003;48821;48.796;2.396;2024-03-02T06:57:00;2.50;2.50;1.00
62778;PMS7003;48821;48.796;2.396;2024-03-02T06:58:13;4.00;3.00;1.00
62778;PMS7003;48821;48.796;2.396;2024-03-02T06:59:30;6.00;3.00;1.33
62778;PMS7003;48821;48.796;2.396;2024-03-02T07:00:43;1.83;1.83;0.67
62778;PMS7003;48821;48.796;2.396;2024-03-02T07:01:57;1.50;1.50;0.00
62778;PMS7003;48821;48.796;2.396;2024-03-02T07:03:10;2.00;2.00;0.00
62778;PMS7003;48821;48.796;2.396;2024-03-02T07:04:23;1.33;1.33;1.00
62778;PMS7003;48821;48.796;2.396;2024-03-02T07:05:36;0.83;0.83;0.00
62778;PMS7003;48821;48.796;2.396;2024-03-02T07:06:49;2.00;2.00;1.00
62778;PMS7003;48821;48.796;2.396;2024-03-02T07:08:04;4.00;3.00;0.00
62778;PMS7003;48821;48.796;2.396;2024-03-02T07:09:18;2.67;2.17;1.00
62778;PMS7003;48821;48.796;2.396;2024-03-02T07:10:35;2.17;2.17;1.00
62778;PMS7003;48821;48.796;2.396;2024-03-02T07:11:48;2.67;2.67;1.00
62778;PMS7003;48821;48.796;2.396;2024-03-02T07:13:02;4.67;3.33;1.67
62778;PMS7003;48821;48.796;2.396;2024-03-02T07:14:15;2.33;2.33;0.17
62778;PMS7003;48821;48.796;2.396;2024-03-02T07:15:28;1.83;1.83;1.00
62778;PMS7003;48821;48.796;2.396;2024-03-02T07:16:57;3.17;3.17;1.00
62778;PMS7003;48821;48.796;2.396;2024-03-02T07:18:11;1.50;1.50;0.67
62778;PMS7003;48821;48.796;2.396;2024-03-02T07:19:25;5.33;2.00;1.00
62778;PMS7003;48821;48.796;2.396;2024-03-02T07:20:38;3.00;1.33;0.17
62778;PMS7003;48821;48.796;2.396;2024-03-02T07:21:51;2.83;2.00;0.17
62778;PMS7003;48821;48.796;2.396;2024-03-02T07:23:05;4.50;2.00;1.00
62778;PMS7003;48821;48.796;2.396;2024-03-02T07:24:18;3.17;1.67;0.17
62778;PMS7003;48821;48.796;2.396;2024-03-02T07:25:32;2.33;2.17;1.00
62778;PMS7003;48821;48.796;2.396;2024-03-02T07:26:45;3.33;3.00;1.00
62778;PMS7003;48821;48.796;2.396;2024-03-02T07:27:58;2.33;2.33;1.00
62778;PMS7003;48821;48.796;2.396;2024-03-02T07:29:11;1.50;1.50;0.67
62778;PMS7003;48821;48.796;2.396;2024-03-02T07:30:24;3.17;3.17;1.00
62778;PMS7003;48821;48.796;2.396;2024-03-02T07:31:38;2.83;2.00;1.00
62778;PMS7003;48821;48.796;2.396;2024-03-02T07:32:51;2.00;0.83;0.00
62778;PMS7003;48821;48.796;2.396;2024-03-02T07:34:04;5.00;2.67;1.00
62778;PMS7003;48821;48.796;2.396;2024-03-02T07:35:17;6.00;3.50;0.67
62778;PMS7003;48821;48.796;2.396;2024-03-02T07:36:31;3.67;3.17;1.67
62778;PMS7003;48821;48.796;2.396;2024-03-02T07:37:44;5.83;4.00;2.00
62778;PMS7003;48821;48.796;2.396;2024-03-02T07:38:57;1.33;0.83;0.00
62778;PMS7003;48821;48.796;2.396;2024-03-02T07:40:11;1.00;1.00;0.00
62778;PMS7003;48821;48.796;2.396;2024-03-02T07:41:24;2.33;2.33;1.00
62778;PMS7003;48821;48.796;2.396;2024-03-02T07:42:41;2.00;2.00;1.33
62778;PMS7003;48821;48.796;2.396;2024-03-02T07:43:54;1.67;1.67;1.00
62778;PMS7003;48821;48.796;2.396;2024-03-02T07:45:07;1.00;1.00;0.00
62778;PMS7003;48821;48.796;2.396;2024-03-02T07:46:21;2.83;2.67;1.33
62778;PMS7003;48821;48.796;2.396;2024-03-02T07:47:34;3.17;1.83;1.00
62778;PMS7003;48821;48.796;2.396;2024-03-02T07:48:48;2.83;2.83;0.50
62778;PMS7003;48821;48.796;2.396;2024-03-02T07:50:01;4.50;1.67;1.00
62778;PMS7003;48821;48.796;2.396;2024-03-02T07:51:15;1.67;1.67;0.17
62778;PMS7003;48821;48.796;2.396;2024-03-02T07:52:30;2.33;1.17;0.33
62778;PMS7003;48821;48.796;2.396;2024-03-02T07:53:43;2.33;2.17;1.17
62778;PMS7003;48821;48.796;2.396;2024-03-02T07:54:56;5.50;2.00;1.00
62778;PMS7003;48821;48.796;2.396;2024-03-02T07:56:09;1.67;1.67;1.00
62778;PMS7003;48821;48.796;2.396;2024-03-02T07:57:22;2.17;1.50;0.67
62778;PMS7003;48821;48.796;2.396;2024-03-02T07:58:36;1.50;1.00;1.00
62778;PMS7003;48821;48.796;2.396;2024-03-02T07:59:49;2.67;2.00;0.83
62778;PMS7003;48821;48.796;2.396;2024-03-02T08:01:03;1.67;1.67;1.00
62778;PMS7003;48821;48.796;2.396;2024-03-02T08:02:16;3.33;2.83;0.50
62778;PMS7003;48821;48.796;2.396;2024-03-02T08:03:30;2.67;2.00;1.00
62778;PMS7003;48821;48.796;2.396;2024-03-02T08:04:45;3.83;2.67;1.67
62778;PMS7003;48821;48.796;2.396;2024-03-02T08:05:58;2.33;2.00;1.00
62778;PMS7003;48821;48.796;2.396;2024-03-02T08:07:12;2.17;2.17;0.67
62778;PMS7003;48821;48.796;2.396;2024-03-02T08:08:25;4.00;1.83;1.17
62778;PMS7003;48821;48.796;2.396;2024-03-02T08:09:38;3.00;1.00;0.17
62778;PMS7003;48821;48.796;2.396;2024-03-02T08:10:51;0.00;0.00;0.00
62778;PMS7003;48821;48.796;2.396;2024-03-02T08:12:05;1.33;1.17;0.67
62778;PMS7003;48821;48.796;2.396;2024-03-02T08:13:18;2.33;2.00;1.00
62778;PMS7003;48821;48.796;2.396;2024-03-02T08:14:31;3.00;2.83;1.00
62778;PMS7003;48821;48.796;2.396;2024-03-02T08:15:44;2.33;2.33;1.00
62778;PMS7003;48821;48.796;2.396;2024-03-02T08:16:57;2.00;1.00;0.33
62778;PMS7003;48821;48.796;2.396;2024-03-02T08:18:11;2.33;1.50;0.00
62778;PMS7003;48821;48.796;2.396;2024-03-02T08:19:24;1.17;1.00;0.17
62778;PMS7003;48821;48.796;2.396;2024-03-02T08:20:37;2.67;1.17;0.67
62778;PMS7003;48821;48.796;2.396;2024-03-02T08:21:50;2.83;1.83;1.00
62778;PMS7003;48821;48.796;2.396;2024-03-02T08:23:04;1.00;1.00;0.00
62778;PMS7003;48821;48.796;2.396;2024-03-02T08:24:17;2.00;1.33;0.00
62778;PMS7003;48821;48.796;2.396;2024-03-02T08:25:31;1.17;1.17;0.00
62778;PMS7003;48821;48.796;2.396;2024-03-02T08:26:44;5.17;2.00;0.50
62778;PMS7003;48821;48.796;2.396;2024-03-02T08:27:57;2.17;2.17;1.00
62778;PMS7003;48821;48.796;2.396;2024-03-02T08:29:10;1.83;1.67;0.00
62778;PMS7003;48821;48.796;2.396;2024-03-02T08:30:24;2.50;2.50;0.00
62778;PMS7003;48821;48.796;2.396;2024-03-02T08:31:38;1.17;1.17;1.00
62778;PMS7003;48821;48.796;2.396;2024-03-02T08:32:51;2.33;1.83;0.00
62778;PMS7003;48821;48.796;2.396;2024-03-02T08:34:04;0.50;0.50;0.00
62778;PMS7003;48821;48.796;2.396;2024-03-02T08:35:17;2.33;1.17;0.00
62778;PMS7003;48821;48.796;2.396;2024-03-02T08:36:30;1.33;1.00;0.00
62778;PMS7003;48821;48.796;2.396;2024-03-02T08:37:44;1.17;1.17;0.17
62778;PMS7003;48821;48.796;2.396;2024-03-02T08:38:57;2.33;1.83;0.00
62778;PMS7003;48821;48.796;2.396;2024-03-02T08:40:10;2.33;2.00;0.83
62778;PMS7003;48821;48.796;2.396;2024-03-02T08:41:24;1.33;1.00;0.83
62778;PMS7003;48821;48.796;2.396;2024-03-02T08:42:37;1.50;1.00;0.00
62778;PMS7003;48821;48.796;2.396;2024-03-02T08:43:50;1.00;1.00;0.00
62778;PMS7003;48821;48.796;2.396;2024-03-02T08:45:04;3.33;2.00;0.67
62778;PMS7003;48821;48.796;2.396;2024-03-02T08:46:17;2.17;2.00;0.17
62778;PMS7003;48821;48.796;2.396;2024-03-02T08:47:30;2.83;2.83;0.67
62778;PMS7003;48821;48.796;2.396;2024-03-02T08:48:44;2.00;1.00;0.00
62778;PMS7003;48821;48.796;2.396;2024-03-02T08:49:57;1.00;1.00;0.33
62778;PMS7003;48821;48.796;2.396;2024-03-02T08:51:10;2.67;1.67;1.00
62778;PMS7003;48821;48.796;2.396;2024-03-02T08:52:23;1.17;1.17;0.67
62778;PMS7003;48821;48.796;2.396;2024-03-02T08:53:36;3.50;2.00;0.00
62778;PMS7003;48821;48.796;2.396;2024-03-02T08:54:50;1.83;1.67;0.83
62778;PMS7003;48821;48.796;2.396;2024-03-02T08:56:03;2.50;0.50;0.00
62778;PMS7003;48821;48.796;2.396;2024-03-02T08:57:18;1.00;1.00;0.17
62778;PMS7003;48821;48.796;2.396;2024-03-02T08:58:31;2.33;0.83;0.17
62778;PMS7003;48821;48.796;2.396;2024-03-02T08:59:45;3.67;2.00;1.00
62778;PMS7003;48821;48.796;2.396;2024-03-02T09:00:58;2.33;1.83;1.00
62778;PMS7003;48821;48.796;2.396;2024-03-02T09:02:11;3.00;1.33;0.00
62778;PMS7003;48821;48.796;2.396;2024-03-02T09:03:24;1.00;1.00;0.17
62778;PMS7003;48821;48.796;2.396;2024-03-02T09:04:38;5.83;3.00;1.00
62778;PMS7003;48821;48.796;2.396;2024-03-02T09:05:51;6.33;2.50;1.00
62778;PMS7003;48821;48.796;2.396;2024-03-02T09:07:04;1.00;1.00;0.00
62778;PMS7003;48821;48.796;2.396;2024-03-02T09:08:17;2.00;2.00;1.00
62778;PMS7003;48821;48.796;2.396;2024-03-02T09:09:30;3.83;2.50;0.83
62778;PMS7003;48821;48.796;2.396;2024-03-02T09:10:44;1.50;1.50;1.00
62778;PMS7003;48821;48.796;2.396;2024-03-02T09:11:57;3.33;2.33;1.00
62778;PMS7003;48821;48.796;2.396;2024-03-02T09:13:11;4.17;2.83;1.00
62778;PMS7003;48821;48.796;2.396;2024-03-02T09:14:24;2.33;2.33;1.00
62778;PMS7003;48821;48.796;2.396;2024-03-02T09:15:37;3.00;2.00;1.00
62778;PMS7003;48821;48.796;2.396;2024-03-02T09:16:52;2.17;2.17;1.00
62778;PMS7003;48821;48.796;2.396;2024-03-02T09:18:05;3.33;3.33;1.50
62778;PMS7003;48821;48.796;2.396;2024-03-02T09:19:19;2.83;2.50;1.00
62778;PMS7003;48821;48.796;2.396;2024-03-02T09:20:32;3.00;3.00;1.00
62778;PMS7003;48821;48.796;2.396;2024-03-02T09:21:45;2.33;2.33;1.50
62778;PMS7003;48821;48.796;2.396;2024-03-02T09:22:59;4.17;3.00;1.00
62778;PMS7003;48821;48.796;2.396;2024-03-02T09:24:12;2.17;2.17;1.17
62778;PMS7003;48821;48.796;2.396;2024-03-02T09:25:25;2.83;2.83;1.00
62778;PMS7003;48821;48.796;2.396;2024-03-02T09:26:38;6.83;5.00;3.50
62778;PMS7003;48821;48.796;2.396;2024-03-02T09:27:52;5.00;4.00;2.33
62778;PMS7003;48821;48.796;2.396;2024-03-02T09:29:05;4.00;4.00;2.67
62778;PMS7003;48821;48.796;2.396;2024-03-02T09:30:18;4.83;4.00;3.00
62778;PMS7003;48821;48.796;2.396;2024-03-02T09:31:29;4.00;4.00;3.00
62778;PMS7003;48821;48.796;2.396;2024-03-02T09:32:40;4.00;2.00;1.00
62778;PMS7003;48821;48.796;2.396;2024-03-02T09:33:54;6.33;5.33;2.33
62778;PMS7003;48821;48.796;2.396;2024-03-02T09:35:07;3.83;3.83;2.00
62778;PMS7003;48821;48.796;2.396;2024-03-02T09:36:21;4.00;4.00;2.00
62778;PMS7003;48821;48.796;2.396;2024-03-02T09:37:35;4.50;4.33;2.67
62778;PMS7003;48821;48.796;2.396;2024-03-02T09:38:48;3.33;3.17;2.00
62778;PMS7003;48821;48.796;2.396;2024-03-02T09:40:02;6.33;5.50;2.83
62778;PMS7003;48821;48.796;2.396;2024-03-02T09:41:15;3.33;3.00;2.00
62778;PMS7003;48821;48.796;2.396;2024-03-02T09:42:29;4.83;4.00;2.00
62778;PMS7003;48821;48.796;2.396;2024-03-02T09:43:42;2.33;2.33;1.00
62778;PMS7003;48821;48.796;2.396;2024-03-02T09:44:55;1.67;1.67;1.00
62778;PMS7003;48821;48.796;2.396;2024-03-02T09:46:10;5.33;3.83;2.00
62778;PMS7003;48821;48.796;2.396;2024-03-02T09:47:23;2.83;2.83;2.00
62778;PMS7003;48821;48.796;2.396;2024-03-02T09:48:37;4.83;3.00;1.50
62778;PMS7003;48821;48.796;2.396;2024-03-02T09:49:50;6.00;3.67;2.00
62778;PMS7003;48821;48.796;2.396;2024-03-02T09:51:04;4.00;2.00;1.00
62778;PMS7003;48821;48.796;2.396;2024-03-02T09:52:18;4.33;2.17;1.67
62778;PMS7003;48821;48.796;2.396;2024-03-02T09:53:32;4.00;4.00;2.00
62778;PMS7003;48821;48.796;2.396;2024-03-02T09:54:47;4.00;3.00;2.00
62778;PMS7003;48821;48.796;2.396;2024-03-02T09:56:01;4.83;3.17;2.00
62778;PMS7003;48821;48.796;2.396;2024-03-02T09:57:11;4.00;3.00;1.33
62778;PMS7003;48821;48.796;2.396;2024-03-02T09:58:22;3.33;3.33;2.00
62778;PMS7003;48821;48.796;2.396;2024-03-02T09:59:36;4.00;2.83;1.00
62778;PMS7003;48821;48.796;2.396;2024-03-02T10:00:49;3.17;2.83;1.00
62778;PMS7003;48821;48.796;2.396;2024-03-02T10:02:02;2.67;2.50;2.00
62778;PMS7003;48821;48.796;2.396;2024-03-02T10:03:16;2.17;2.17;1.17
62778;PMS7003;48821;48.796;2.396;2024-03-02T10:04:31;3.17;3.17;2.00
62778;PMS7003;48821;48.796;2.396;2024-03-02T10:05:45;6.17;4.83;2.00
62778;PMS7003;48821;48.796;2.396;2024-03-02T10:07:17;2.50;2.50;1.00
62778;PMS7003;48821;48.796;2.396;2024-03-02T10:08:42;4.00;3.00;2.00
62778;PMS7003;48821;48.796;2.396;2024-03-02T10:09:56;3.83;3.67;1.67
62778;PMS7003;48821;48.796;2.396;2024-03-02T10:11:10;3.50;3.17;2.00
62778;PMS7003;48821;48.796;2.396;2024-03-02T10:12:23;4.33;3.17;1.17
62778;PMS7003;48821;48.796;2.396;2024-03-02T10:13:37;3.00;3.00;1.67
62778;PMS7003;48821;48.796;2.396;2024-03-02T10:14:50;7.50;5.83;3.50
62778;PMS7003;48821;48.796;2.396;2024-03-02T10:16:17;3.83;3.83;2.33
62778;PMS7003;48821;48.796;2.396;2024-03-02T10:17:31;1.17;1.00;0.00
62778;PMS7003;48821;48.796;2.396;2024-03-02T10:18:44;4.00;4.00;2.67
62778;PMS7003;48821;48.796;2.396;2024-03-02T10:19:57;3.33;3.33;2.33
62778;PMS7003;48821;48.796;2.396;2024-03-02T10:21:14;3.17;2.83;1.67
62778;PMS7003;48821;48.796;2.396;2024-03-02T10:22:27;4.33;2.00;2.00
62778;PMS7003;48821;48.796;2.396;2024-03-02T10:23:41;3.00;2.33;2.00
62778;PMS7003;48821;48.796;2.396;2024-03-02T10:24:54;4.50;4.33;1.83
62778;PMS7003;48821;48.796;2.396;2024-03-02T10:26:12;6.00;5.00;2.00
62778;PMS7003;48821;48.796;2.396;2024-03-02T10:27:29;4.50;4.50;2.00
62778;PMS7003;48821;48.796;2.396;2024-03-02T10:28:47;3.83;3.67;2.50
62778;PMS7003;48821;48.796;2.396;2024-03-02T10:29:57;6.00;4.67;3.00
62778;PMS7003;48821;48.796;2.396;2024-03-02T10:31:08;5.67;5.67;2.33
62778;PMS7003;48821;48.796;2.396;2024-03-02T10:32:22;6.83;5.50;2.67
62778;PMS7003;48821;48.796;2.396;2024-03-02T10:33:35;7.17;4.17;2.00
62778;PMS7003;48821;48.796;2.396;2024-03-02T10:34:46;4.33;4.00;2.00
62778;PMS7003;48821;48.796;2.396;2024-03-02T10:35:59;6.67;5.00;2.00
62778;PMS7003;48821;48.796;2.396;2024-03-02T10:37:11;7.00;6.00;4.00
62778;PMS7003;48821;48.796;2.396;2024-03-02T10:38:24;6.00;4.83;2.50
62778;PMS7003;48821;48.796;2.396;2024-03-02T10:39:38;5.33;4.00;3.00
62778;PMS7003;48821;48.796;2.396;2024-03-02T10:40:52;5.67;5.67;3.50
62778;PMS7003;48821;48.796;2.396;2024-03-02T10:42:05;6.33;6.00;3.00
62778;PMS7003;48821;48.796;2.396;2024-03-02T10:43:19;4.67;4.67;3.33
62778;PMS7003;48821;48.796;2.396;2024-03-02T10:44:30;4.00;4.00;2.00
62778;PMS7003;48821;48.796;2.396;2024-03-02T10:45:45;4.67;4.50;2.33
62778;PMS7003;48821;48.796;2.396;2024-03-02T10:47:03;5.00;4.67;3.00
62778;PMS7003;48821;48.796;2.396;2024-03-02T10:48:18;7.33;4.17;2.83
62778;PMS7003;48821;48.796;2.396;2024-03-02T10:49:32;4.33;4.00;3.00
62778;PMS7003;48821;48.796;2.396;2024-03-02T10:50:45;4.00;4.00;2.00
62778;PMS7003;48821;48.796;2.396;2024-03-02T10:51:59;4.00;3.00;2.00
62778;PMS7003;48821;48.796;2.396;2024-03-02T10:53:12;4.00;4.00;2.00
62778;PMS7003;48821;48.796;2.396;2024-03-02T10:54:25;4.50;4.50;3.00
62778;PMS7003;48821;48.796;2.396;2024-03-02T10:55:39;5.00;3.50;2.17
62778;PMS7003;48821;48.796;2.396;2024-03-02T10:56:53;3.67;2.83;0.83
62778;PMS7003;48821;48.796;2.396;2024-03-02T10:58:08;3.83;3.83;2.00
62778;PMS7003;48821;48.796;2.396;2024-03-02T10:59:28;3.33;3.33;2.00
62778;PMS7003;48821;48.796;2.396;2024-03-02T11:00:49;4.00;3.17;2.00
62778;PMS7003;48821;48.796;2.396;2024-03-02T11:02:03;3.50;3.50;2.00
62778;PMS7003;48821;48.796;2.396;2024-03-02T11:03:19;5.67;4.00;2.00
62778;PMS7003;48821;48.796;2.396;2024-03-02T11:04:33;6.67;6.00;3.00
62778;PMS7003;48821;48.796;2.396;2024-03-02T11:05:47;3.83;2.00;1.83
62778;PMS7003;48821;48.796;2.396;2024-03-02T11:07:05;2.33;1.50;1.33
62778;PMS7003;48821;48.796;2.396;2024-03-02T11:08:20;2.00;2.00;1.00
62778;PMS7003;48821;48.796;2.396;2024-03-02T11:09:39;2.50;2.00;1.67
62778;PMS7003;48821;48.796;2.396;2024-03-02T11:10:57;1.00;0.67;0.33
62778;PMS7003;48821;48.796;2.396;2024-03-02T11:12:24;1.00;1.00;0.00
62778;PMS7003;48821;48.796;2.396;2024-03-02T11:13:49;1.83;1.00;1.00
62778;PMS7003;48821;48.796;2.396;2024-03-02T11:15:03;0.50;0.50;0.00
62778;PMS7003;48821;48.796;2.396;2024-03-02T11:17:45;1.33;1.33;0.00
62778;PMS7003;48821;48.796;2.396;2024-03-02T11:18:59;1.67;1.67;0.67
62778;PMS7003;48821;48.796;2.396;2024-03-02T11:20:17;1.17;1.17;0.33
62778;PMS7003;48821;48.796;2.396;2024-03-02T11:21:32;1.00;1.00;0.00
62778;PMS7003;48821;48.796;2.396;2024-03-02T11:22:47;1.33;1.33;0.33
62778;PMS7003;48821;48.796;2.396;2024-03-02T11:24:00;1.50;1.50;1.00
62778;PMS7003;48821;48.796;2.396;2024-03-02T11:25:36;2.00;1.00;1.00
62778;PMS7003;48821;48.796;2.396;2024-03-02T11:26:51;2.33;2.33;1.00
62778;PMS7003;48821;48.796;2.396;2024-03-02T11:28:05;2.00;2.00;1.00
62778;PMS7003;48821;48.796;2.396;2024-03-02T11:30:53;1.67;1.67;1.50
62778;PMS7003;48821;48.796;2.396;2024-03-02T11:32:13;2.33;2.33;1.00
62778;PMS7003;48821;48.796;2.396;2024-03-02T11:33:28;3.83;3.83;2.00
62778;PMS7003;48821;48.796;2.396;2024-03-02T11:34:44;2.33;2.17;1.33
62778;PMS7003;48821;48.796;2.396;2024-03-02T11:35:59;1.17;1.00;1.00
62778;PMS7003;48821;48.796;2.396;2024-03-02T11:37:13;2.00;2.00;1.00
62778;PMS7003;48821;48.796;2.396;2024-03-02T11:38:28;2.00;2.00;1.17
62778;PMS7003;48821;48.796;2.396;2024-03-02T11:39:46;0.83;0.50;0.50
62778;PMS7003;48821;48.796;2.396;2024-03-02T11:41:02;2.83;2.83;1.00
62778;PMS7003;48821;48.796;2.396;2024-03-02T11:42:20;1.83;1.83;1.83
62778;PMS7003;48821;48.796;2.396;2024-03-02T11:43:33;2.17;1.50;0.50
62778;PMS7003;48821;48.796;2.396;2024-03-02T11:44:49;1.50;1.50;0.50
62778;PMS7003;48821;48.796;2.396;2024-03-02T11:46:03;1.50;1.50;0.50
62778;PMS7003;48821;48.796;2.396;2024-03-02T11:47:19;3.00;3.00;1.00
62778;PMS7003;48821;48.796;2.396;2024-03-02T11:48:33;2.00;2.00;0.50
62778;PMS7003;48821;48.796;2.396;2024-03-02T11:49:48;2.00;2.00;0.00
62778;PMS7003;48821;48.796;2.396;2024-03-02T11:51:04;2.00;2.00;1.00
62778;PMS7003;48821;48.796;2.396;2024-03-02T11:52:17;2.00;0.50;0.00
62778;PMS7003;48821;48.796;2.396;2024-03-02T11:53:31;1.50;1.50;0.67
62778;PMS7003;48821;48.796;2.396;2024-03-02T11:54:47;2.17;2.17;1.17
62778;PMS7003;48821;48.796;2.396;2024-03-02T11:56:01;0.50;0.50;0.50
62778;PMS7003;48821;48.796;2.396;2024-03-02T11:57:15;2.17;2.00;1.00
62778;PMS7003;48821;48.796;2.396;2024-03-02T11:58:30;3.33;2.33;1.67
62778;PMS7003;48821;48.796;2.396;2024-03-02T11:59:44;1.00;1.00;0.83
62778;PMS7003;48821;48.796;2.396;2024-03-02T12:00:58;0.83;0.83;0.00
62778;PMS7003;48821;48.796;2.396;2024-03-02T12:02:15;1.00;1.00;0.00
62778;PMS7003;48821;48.796;2.396;2024-03-02T12:03:32;1.00;1.00;0.00
62778;PMS7003;48821;48.796;2.396;2024-03-02T12:04:46;2.00;0.50;0.00
62778;PMS7003;48821;48.796;2.396;2024-03-02T12:06:01;1.17;1.00;0.17
62778;PMS7003;48821;48.796;2.396;2024-03-02T12:07:19;1.17;1.17;0.00
62778;PMS7003;48821;48.796;2.396;2024-03-02T12:08:34;1.67;1.67;0.67
62778;PMS7003;48821;48.796;2.396;2024-03-02T12:09:47;1.50;1.33;1.00
62778;PMS7003;48821;48.796;2.396;2024-03-02T12:11:01;1.50;0.33;0.00
62778;PMS7003;48821;48.796;2.396;2024-03-02T12:12:15;0.17;0.17;0.00
62778;PMS7003;48821;48.796;2.396;2024-03-02T12:13:31;0.50;0.50;0.00
62778;PMS7003;48821;48.796;2.396;2024-03-02T12:14:51;1.00;1.00;0.00
62778;PMS7003;48821;48.796;2.396;2024-03-02T12:16:07;0.67;0.67;0.00
62778;PMS7003;48821;48.796;2.396;2024-03-02T12:17:21;1.00;0.00;0.00
62778;PMS7003;48821;48.796;2.396;2024-03-02T12:18:35;1.00;1.00;0.00
62778;PMS7003;48821;48.796;2.396;2024-03-02T12:19:49;0.83;0.83;0.00
62778;PMS7003;48821;48.796;2.396;2024-03-02T12:21:02;0.00;0.00;0.00
62778;PMS7003;48821;48.796;2.396;2024-03-02T12:22:17;2.50;1.17;0.17
62778;PMS7003;48821;48.796;2.396;2024-03-02T12:23:30;1.33;1.00;1.00
62778;PMS7003;48821;48.796;2.396;2024-03-02T12:24:43;2.00;1.00;0.00
62778;PMS7003;48821;48.796;2.396;2024-03-02T12:25:58;2.00;2.00;2.00
62778;PMS7003;48821;48.796;2.396;2024-03-02T12:27:11;2.83;2.17;1.50
62778;PMS7003;48821;48.796;2.396;2024-03-02T12:28:25;2.17;2.17;2.00
62778;PMS7003;48821;48.796;2.396;2024-03-02T12:29:39;2.33;2.00;1.00
62778;PMS7003;48821;48.796;2.396;2024-03-02T12:30:52;3.00;3.00;1.17
62778;PMS7003;48821;48.796;2.396;2024-03-02T12:32:05;1.83;1.83;0.67
62778;PMS7003;48821;48.796;2.396;2024-03-02T12:33:19;2.83;2.17;1.83
62778;PMS7003;48821;48.796;2.396;2024-03-02T12:34:32;1.67;1.67;0.00
62778;PMS7003;48821;48.796;2.396;2024-03-02T12:35:45;2.67;2.67;1.33
62778;PMS7003;48821;48.796;2.396;2024-03-02T12:36:59;2.00;2.00;1.33
62778;PMS7003;48821;48.796;2.396;2024-03-02T12:38:12;2.00;2.00;1.50
62778;PMS7003;48821;48.796;2.396;2024-03-02T12:39:27;2.33;2.33;1.50
62778;PMS7003;48821;48.796;2.396;2024-03-02T12:40:40;3.33;3.17;2.00
62778;PMS7003;48821;48.796;2.396;2024-03-02T12:41:53;1.00;1.00;0.33
62778;PMS7003;48821;48.796;2.396;2024-03-02T12:43:08;3.67;2.83;1.00
62778;PMS7003;48821;48.796;2.396;2024-03-02T12:44:21;3.00;3.00;1.00
62778;PMS7003;48821;48.796;2.396;2024-03-02T12:45:35;1.17;1.17;0.50
62778;PMS7003;48821;48.796;2.396;2024-03-02T12:46:48;2.17;2.17;1.67
62778;PMS7003;48821;48.796;2.396;2024-03-02T12:48:01;1.00;1.00;0.00
62778;PMS7003;48821;48.796;2.396;2024-03-02T12:49:15;6.00;2.00;0.33
62778;PMS7003;48821;48.796;2.396;2024-03-02T12:50:29;1.33;1.33;0.50
62778;PMS7003;48821;48.796;2.396;2024-03-02T12:51:43;2.33;2.00;1.00
62778;PMS7003;48821;48.796;2.396;2024-03-02T12:52:56;1.33;1.33;0.00
62778;PMS7003;48821;48.796;2.396;2024-03-02T12:54:10;0.50;0.50;0.00
62778;PMS7003;48821;48.796;2.396;2024-03-02T12:55:23;1.67;0.67;0.50
62778;PMS7003;48821;48.796;2.396;2024-03-02T12:56:37;0.50;0.50;0.00
62778;PMS7003;48821;48.796;2.396;2024-03-02T12:57:51;2.00;2.00;1.33
62778;PMS7003;48821;48.796;2.396;2024-03-02T12:59:05;3.33;3.33;2.00
62778;PMS7003;48821;48.796;2.396;2024-03-02T13:00:18;3.33;3.33;1.33
62778;PMS7003;48821;48.796;2.396;2024-03-02T13:01:32;4.50;3.00;2.00
62778;PMS7003;48821;48.796;2.396;2024-03-02T13:02:46;2.50;2.50;1.00
62778;PMS7003;48821;48.796;2.396;2024-03-02T13:04:00;3.50;2.83;1.17
62778;PMS7003;48821;48.796;2.396;2024-03-02T13:05:13;1.50;1.50;0.50
62778;PMS7003;48821;48.796;2.396;2024-03-02T13:06:26;1.00;0.83;0.00
62778;PMS7003;48821;48.796;2.396;2024-03-02T13:07:40;0.50;0.50;0.17
62778;PMS7003;48821;48.796;2.396;2024-03-02T13:08:54;0.83;0.50;0.17
62778;PMS7003;48821;48.796;2.396;2024-03-02T13:10:07;1.83;1.83;0.50
62778;PMS7003;48821;48.796;2.396;2024-03-02T13:11:22;5.50;5.33;2.17
62778;PMS7003;48821;48.796;2.396;2024-03-02T13:12:34;3.00;3.00;2.00
62778;PMS7003;48821;48.796;2.396;2024-03-02T13:13:48;0.50;0.50;0.17
62778;PMS7003;48821;48.796;2.396;2024-03-02T13:15:02;5.50;5.50;2.83
62778;PMS7003;48821;48.796;2.396;2024-03-02T13:16:17;2.17;2.17;1.33
62778;PMS7003;48821;48.796;2.396;2024-03-02T13:17:30;7.00;5.00;3.00
62778;PMS7003;48821;48.796;2.396;2024-03-02T13:18:42;7.00;5.50;3.75
62778;PMS7003;48821;48.796;2.396;2024-03-02T13:19:57;0.00;0.00;0.00
62778;PMS7003;48821;48.796;2.396;2024-03-02T13:21:08;3.33;3.00;2.00
62778;PMS7003;48821;48.796;2.396;2024-03-02T13:22:20;4.00;2.00;0.33
62778;PMS7003;48821;48.796;2.396;2024-03-02T13:23:34;1.50;1.50;0.50
62778;PMS7003;48821;48.796;2.396;2024-03-02T13:24:47;2.17;1.33;0.50
62778;PMS7003;48821;48.796;2.396;2024-03-02T13:26:01;1.17;1.17;0.50
62778;PMS7003;48821;48.796;2.396;2024-03-02T13:27:14;3.00;1.67;0.50
62778;PMS7003;48821;48.796;2.396;2024-03-02T13:28:28;2.00;2.00;0.50
62778;PMS7003;48821;48.796;2.396;2024-03-02T13:29:42;3.17;3.17;1.50
62778;PMS7003;48821;48.796;2.396;2024-03-02T13:30:55;5.33;4.50;3.33
62778;PMS7003;48821;48.796;2.396;2024-03-02T13:32:06;4.00;4.00;3.00
62778;PMS7003;48821;48.796;2.396;2024-03-02T13:33:17;5.33;4.33;2.67
62778;PMS7003;48821;48.796;2.396;2024-03-02T13:34:35;3.83;3.83;2.50
62778;PMS7003;48821;48.796;2.396;2024-03-02T13:35:50;3.33;3.33;1.67
62778;PMS7003;48821;48.796;2.396;2024-03-02T13:37:03;3.00;3.00;2.00
62778;PMS7003;48821;48.796;2.396;2024-03-02T13:38:18;3.00;3.00;1.67
62778;PMS7003;48821;48.796;2.396;2024-03-02T13:39:32;3.33;3.33;2.17
62778;PMS7003;48821;48.796;2.396;2024-03-02T13:40:48;5.83;4.50;2.83
62778;PMS7003;48821;48.796;2.396;2024-03-02T13:42:11;6.50;5.17;3.00
62778;PMS7003;48821;48.796;2.396;2024-03-02T13:43:27;7.67;6.50;3.50
62778;PMS7003;48821;48.796;2.396;2024-03-02T13:44:37;6.33;4.33;2.67
62778;PMS7003;48821;48.796;2.396;2024-03-02T13:45:48;7.67;6.00;3.33
62778;PMS7003;48821;48.796;2.396;2024-03-02T13:46:59;3.67;3.67;2.33
62778;PMS7003;48821;48.796;2.396;2024-03-02T13:48:13;6.67;3.67;2.67
62778;PMS7003;48821;48.796;2.396;2024-03-02T13:49:27;7.67;7.17;4.00
62778;PMS7003;48821;48.796;2.396;2024-03-02T13:50:46;4.83;4.83;2.00
62778;PMS7003;48821;48.796;2.396;2024-03-02T13:51:59;6.67;4.00;2.00
62778;PMS7003;48821;48.796;2.396;2024-03-02T13:53:15;6.00;6.00;3.83
62778;PMS7003;48821;48.796;2.396;2024-03-02T13:54:29;6.00;6.00;4.00
62778;PMS7003;48821;48.796;2.396;2024-03-02T13:55:42;3.67;2.83;2.00
62778;PMS7003;48821;48.796;2.396;2024-03-02T13:56:53;7.00;5.67;3.00
62778;PMS7003;48821;48.796;2.396;2024-03-02T13:58:04;6.33;4.00;3.00
62778;PMS7003;48821;48.796;2.396;2024-03-02T13:59:16;6.75;6.00;3.50
62778;PMS7003;48821;48.796;2.396;2024-03-02T14:00:29;7.17;6.33;3.83
62778;PMS7003;48821;48.796;2.396;2024-03-02T14:01:42;7.50;6.67;4.00
62778;PMS7003;48821;48.796;2.396;2024-03-02T14:02:57;7.83;7.83;3.83
62778;PMS7003;48821;48.796;2.396;2024-03-02T14:04:10;4.00;4.00;2.67
62778;PMS7003;48821;48.796;2.396;2024-03-02T14:05:23;4.33;4.33;1.33
62778;PMS7003;48821;48.796;2.396;2024-03-02T14:06:37;3.33;2.67;2.00
62778;PMS7003;48821;48.796;2.396;2024-03-02T14:07:50;5.00;4.50;3.17
62778;PMS7003;48821;48.796;2.396;2024-03-02T14:09:03;4.17;4.17;2.67
62778;PMS7003;48821;48.796;2.396;2024-03-02T14:10:16;6.50;6.50;3.00
62778;PMS7003;48821;48.796;2.396;2024-03-02T14:11:30;5.67;4.50;2.67